sensor_id;sensor_type;location;lat;lon;timestamp;P1;durP1;ratioP1;P2;durP2;ratioP2
27704;SDS011;15109;50.992;6.918;2022-12-10T00:02:15;17.58;;;9.50;;
27704;SDS011;15109;50.992;6.918;2022-12-10T00:05:36;17.13;;;8.82;;
27704;SDS011;15109;50.992;6.918;2022-12-10T00:09:03;19.85;;;10.25;;
27704;SDS011;15109;50.992;6.918;2022-12-10T00:12:30;16.08;;;8.20;;
27704;SDS011;15109;50.992;6.918;2022-12-10T00:15:56;22.67;;;10.82;;
27704;SDS011;15109;50.992;6.918;2022-12-10T00:19:25;19.08;;;9.05;;
27704;SDS011;15109;50.992;6.918;2022-12-10T00:22:47;18.42;;;9.27;;
27704;SDS011;15109;50.992;6.918;2022-12-10T00:26:18;16.58;;;8.75;;
27704;SDS011;15109;50.992;6.918;2022-12-10T00:29:41;17.75;;;9.48;;
27704;SDS011;15109;50.992;6.918;2022-12-10T00:33:03;20.48;;;8.88;;
27704;SDS011;15109;50.992;6.918;2022-12-10T00:36:33;15.32;;;8.65;;
27704;SDS011;15109;50.992;6.918;2022-12-10T00:40:06;17.35;;;9.68;;
27704;SDS011;15109;50.992;6.918;2022-12-10T00:43:31;21.17;;;9.80;;
27704;SDS011;15109;50.992;6.918;2022-12-10T00:46:52;15.57;;;8.68;;
27704;SDS011;15109;50.992;6.918;2022-12-10T00:50:13;15.18;;;8.68;;
27704;SDS011;15109;50.992;6.918;2022-12-10T00:53:35;19.13;;;9.23;;
27704;SDS011;15109;50.992;6.918;2022-12-10T00:57:00;18.65;;;8.57;;
27704;SDS011;15109;50.992;6.918;2022-12-10T01:00:24;16.58;;;7.80;;
27704;SDS011;15109;50.992;6.918;2022-12-10T01:03:46;19.20;;;8.73;;
27704;SDS011;15109;50.992;6.918;2022-12-10T01:07:08;18.90;;;9.23;;
27704;SDS011;15109;50.992;6.918;2022-12-10T01:10:31;20.75;;;10.13;;
27704;SDS011;15109;50.992;6.918;2022-12-10T01:13:52;16.40;;;8.48;;
27704;SDS011;15109;50.992;6.918;2022-12-10T01:17:13;16.15;;;7.80;;
27704;SDS011;15109;50.992;6.918;2022-12-10T01:20:35;18.00;;;9.45;;
27704;SDS011;15109;50.992;6.918;2022-12-10T01:23:57;23.10;;;9.75;;
27704;SDS011;15109;50.992;6.918;2022-12-10T01:27:20;15.70;;;7.95;;
27704;SDS011;15109;50.992;6.918;2022-12-10T01:30:41;22.88;;;9.45;;
27704;SDS011;15109;50.992;6.918;2022-12-10T01:34:04;17.88;;;8.57;;
27704;SDS011;15109;50.992;6.918;2022-12-10T01:37:26;20.13;;;7.80;;
27704;SDS011;15109;50.992;6.918;2022-12-10T01:40:47;17.35;;;8.93;;
27704;SDS011;15109;50.992;6.918;2022-12-10T01:47:30;19.02;;;8.90;;
27704;SDS011;15109;50.992;6.918;2022-12-10T01:50:53;15.57;;;7.53;;
27704;SDS011;15109;50.992;6.918;2022-12-10T01:54:21;15.43;;;8.45;;
27704;SDS011;15109;50.992;6.918;2022-12-10T01:57:45;16.83;;;9.00;;
27704;SDS011;15109;50.992;6.918;2022-12-10T02:01:29;14.93;;;7.85;;
27704;SDS011;15109;50.992;6.918;2022-12-10T02:08:53;17.90;;;7.70;;
27704;SDS011;15109;50.992;6.918;2022-12-10T02:12:37;14.27;;;7.50;;
27704;SDS011;15109;50.992;6.918;2022-12-10T02:16:18;23.23;;;9.27;;
27704;SDS011;15109;50.992;6.918;2022-12-10T02:19:57;16.13;;;7.75;;
27704;SDS011;15109;50.992;6.918;2022-12-10T02:27:40;13.10;;;7.50;;
27704;SDS011;15109;50.992;6.918;2022-12-10T02:31:14;15.48;;;7.10;;
27704;SDS011;15109;50.992;6.918;2022-12-10T02:34:44;13.35;;;6.82;;
27704;SDS011;15109;50.992;6.918;2022-12-10T02:38:16;17.50;;;7.90;;
27704;SDS011;15109;50.992;6.918;2022-12-10T02:41:46;14.57;;;6.80;;
27704;SDS011;15109;50.992;6.918;2022-12-10T02:45:12;19.08;;;8.43;;
27704;SDS011;15109;50.992;6.918;2022-12-10T02:48:34;16.60;;;7.03;;
27704;SDS011;15109;50.992;6.918;2022-12-10T02:51:57;22.42;;;9.15;;
27704;SDS011;15109;50.992;6.918;2022-12-10T02:55:26;22.10;;;8.57;;
27704;SDS011;15109;50.992;6.918;2022-12-10T03:06:50;19.42;;;7.78;;
27704;SDS011;15109;50.992;6.918;2022-12-10T03:17:14;13.98;;;6.38;;
27704;SDS011;15109;50.992;6.918;2022-12-10T03:20:37;17.13;;;7.85;;
27704;SDS011;15109;50.992;6.918;2022-12-10T03:24:00;18.27;;;8.27;;
27704;SDS011;15109;50.992;6.918;2022-12-10T03:27:23;20.55;;;8.00;;
27704;SDS011;15109;50.992;6.918;2022-12-10T03:30:44;19.02;;;9.45;;
27704;SDS011;15109;50.992;6.918;2022-12-10T03:34:08;16.60;;;7.70;;
27704;SDS011;15109;50.992;6.918;2022-12-10T03:37:30;18.27;;;8.43;;
27704;SDS011;15109;50.992;6.918;2022-12-10T03:40:52;21.00;;;8.63;;
27704;SDS011;15109;50.992;6.918;2022-12-10T03:44:13;24.35;;;8.20;;
27704;SDS011;15109;50.992;6.918;2022-12-10T03:47:56;17.83;;;8.20;;
27704;SDS011;15109;50.992;6.918;2022-12-10T03:51:18;14.65;;;7.60;;
27704;SDS011;15109;50.992;6.918;2022-12-10T03:54:39;16.33;;;8.13;;
27704;SDS011;15109;50.992;6.918;2022-12-10T03:58:00;19.90;;;9.38;;
27704;SDS011;15109;50.992;6.918;2022-12-10T04:01:21;23.20;;;9.35;;
27704;SDS011;15109;50.992;6.918;2022-12-10T04:04:42;19.80;;;9.15;;
27704;SDS011;15109;50.992;6.918;2022-12-10T04:08:03;17.17;;;7.97;;
27704;SDS011;15109;50.992;6.918;2022-12-10T04:11:25;16.00;;;8.63;;
27704;SDS011;15109;50.992;6.918;2022-12-10T04:14:46;18.10;;;9.15;;
27704;SDS011;15109;50.992;6.918;2022-12-10T04:18:26;15.95;;;7.57;;
27704;SDS011;15109;50.992;6.918;2022-12-10T04:21:48;17.80;;;7.65;;
27704;SDS011;15109;50.992;6.918;2022-12-10T04:25:28;17.48;;;8.40;;
27704;SDS011;15109;50.992;6.918;2022-12-10T04:29:25;16.38;;;8.15;;
27704;SDS011;15109;50.992;6.918;2022-12-10T04:32:48;22.45;;;10.50;;
27704;SDS011;15109;50.992;6.918;2022-12-10T04:36:09;16.38;;;7.88;;
27704;SDS011;15109;50.992;6.918;2022-12-10T04:42:56;18.13;;;8.90;;
27704;SDS011;15109;50.992;6.918;2022-12-10T04:46:17;24.23;;;8.32;;
27704;SDS011;15109;50.992;6.918;2022-12-10T04:49:38;21.20;;;8.73;;
27704;SDS011;15109;50.992;6.918;2022-12-10T04:53:00;24.92;;;10.10;;
27704;SDS011;15109;50.992;6.918;2022-12-10T04:56:21;15.32;;;7.43;;
27704;SDS011;15109;50.992;6.918;2022-12-10T04:59:45;20.50;;;9.50;;
27704;SDS011;15109;50.992;6.918;2022-12-10T05:03:06;16.25;;;8.90;;
27704;SDS011;15109;50.992;6.918;2022-12-10T05:06:27;15.38;;;8.27;;
27704;SDS011;15109;50.992;6.918;2022-12-10T05:09:48;15.70;;;7.82;;
27704;SDS011;15109;50.992;6.918;2022-12-10T05:13:09;20.70;;;9.88;;
27704;SDS011;15109;50.992;6.918;2022-12-10T05:16:31;22.00;;;8.70;;
27704;SDS011;15109;50.992;6.918;2022-12-10T05:19:53;16.92;;;7.80;;
27704;SDS011;15109;50.992;6.918;2022-12-10T05:23:15;20.10;;;9.38;;
27704;SDS011;15109;50.992;6.918;2022-12-10T05:26:48;15.40;;;7.28;;
27704;SDS011;15109;50.992;6.918;2022-12-10T05:30:11;21.55;;;10.05;;
27704;SDS011;15109;50.992;6.918;2022-12-10T05:33:33;22.90;;;7.40;;
27704;SDS011;15109;50.992;6.918;2022-12-10T05:36:54;19.60;;;7.90;;
27704;SDS011;15109;50.992;6.918;2022-12-10T05:40:15;18.35;;;9.13;;
27704;SDS011;15109;50.992;6.918;2022-12-10T05:43:36;14.30;;;8.35;;
27704;SDS011;15109;50.992;6.918;2022-12-10T05:46:57;17.17;;;9.30;;
27704;SDS011;15109;50.992;6.918;2022-12-10T05:50:18;24.48;;;10.57;;
27704;SDS011;15109;50.992;6.918;2022-12-10T05:53:40;18.30;;;8.25;;
27704;SDS011;15109;50.992;6.918;2022-12-10T05:57:02;14.80;;;8.13;;
27704;SDS011;15109;50.992;6.918;2022-12-10T06:00:23;18.50;;;9.75;;
27704;SDS011;15109;50.992;6.918;2022-12-10T06:03:44;16.05;;;8.63;;
27704;SDS011;15109;50.992;6.918;2022-12-10T06:07:05;18.73;;;9.70;;
27704;SDS011;15109;50.992;6.918;2022-12-10T06:10:26;19.17;;;10.10;;
27704;SDS011;15109;50.992;6.918;2022-12-10T06:13:49;23.25;;;10.25;;
27704;SDS011;15109;50.992;6.918;2022-12-10T06:17:10;23.73;;;9.07;;
27704;SDS011;15109;50.992;6.918;2022-12-10T06:20:36;18.45;;;8.30;;
27704;SDS011;15109;50.992;6.918;2022-12-10T06:23:58;14.77;;;8.35;;
27704;SDS011;15109;50.992;6.918;2022-12-10T06:27:19;13.10;;;8.23;;
27704;SDS011;15109;50.992;6.918;2022-12-10T06:30:40;18.05;;;9.13;;
27704;SDS011;15109;50.992;6.918;2022-12-10T06:34:01;17.45;;;8.93;;
27704;SDS011;15109;50.992;6.918;2022-12-10T06:37:22;20.27;;;9.52;;
27704;SDS011;15109;50.992;6.918;2022-12-10T06:40:44;19.35;;;8.38;;
27704;SDS011;15109;50.992;6.918;2022-12-10T06:44:08;16.65;;;8.13;;
27704;SDS011;15109;50.992;6.918;2022-12-10T06:47:29;18.33;;;8.30;;
27704;SDS011;15109;50.992;6.918;2022-12-10T06:50:50;22.38;;;9.88;;
27704;SDS011;15109;50.992;6.918;2022-12-10T06:54:11;18.80;;;8.88;;
27704;SDS011;15109;50.992;6.918;2022-12-10T06:57:32;15.82;;;8.10;;
27704;SDS011;15109;50.992;6.918;2022-12-10T07:00:53;17.40;;;8.82;;
27704;SDS011;15109;50.992;6.918;2022-12-10T07:04:14;16.27;;;8.63;;
27704;SDS011;15109;50.992;6.918;2022-12-10T07:07:35;18.88;;;8.48;;
27704;SDS011;15109;50.992;6.918;2022-12-10T07:10:57;22.23;;;9.90;;
27704;SDS011;15109;50.992;6.918;2022-12-10T07:14:19;21.92;;;9.50;;
27704;SDS011;15109;50.992;6.918;2022-12-10T07:17:40;16.30;;;8.77;;
27704;SDS011;15109;50.992;6.918;2022-12-10T07:21:01;17.05;;;8.25;;
27704;SDS011;15109;50.992;6.918;2022-12-10T07:24:22;18.98;;;9.13;;
27704;SDS011;15109;50.992;6.918;2022-12-10T07:27:43;17.10;;;7.97;;
27704;SDS011;15109;50.992;6.918;2022-12-10T07:31:05;20.75;;;10.02;;
27704;SDS011;15109;50.992;6.918;2022-12-10T07:34:28;17.30;;;8.65;;
27704;SDS011;15109;50.992;6.918;2022-12-10T07:37:49;22.98;;;10.02;;
27704;SDS011;15109;50.992;6.918;2022-12-10T07:41:10;22.98;;;10.23;;
27704;SDS011;15109;50.992;6.918;2022-12-10T07:44:32;16.33;;;8.18;;
27704;SDS011;15109;50.992;6.918;2022-12-10T07:47:53;14.82;;;8.48;;
27704;SDS011;15109;50.992;6.918;2022-12-10T07:51:15;22.23;;;9.75;;
27704;SDS011;15109;50.992;6.918;2022-12-10T07:54:37;13.98;;;8.35;;
27704;SDS011;15109;50.992;6.918;2022-12-10T07:57:58;20.05;;;10.65;;
27704;SDS011;15109;50.992;6.918;2022-12-10T08:01:21;24.67;;;11.60;;
27704;SDS011;15109;50.992;6.918;2022-12-10T08:04:45;25.83;;;11.10;;
27704;SDS011;15109;50.992;6.918;2022-12-10T08:08:06;26.35;;;12.55;;
27704;SDS011;15109;50.992;6.918;2022-12-10T08:11:28;26.10;;;12.48;;
27704;SDS011;15109;50.992;6.918;2022-12-10T08:14:49;27.63;;;13.77;;
27704;SDS011;15109;50.992;6.918;2022-12-10T08:18:10;26.90;;;12.63;;
27704;SDS011;15109;50.992;6.918;2022-12-10T08:21:31;29.15;;;13.13;;
27704;SDS011;15109;50.992;6.918;2022-12-10T08:24:53;28.30;;;15.27;;
27704;SDS011;15109;50.992;6.918;2022-12-10T08:28:14;30.58;;;13.80;;
27704;SDS011;15109;50.992;6.918;2022-12-10T08:31:35;34.22;;;16.25;;
27704;SDS011;15109;50.992;6.918;2022-12-10T08:34:57;31.02;;;14.10;;
27704;SDS011;15109;50.992;6.918;2022-12-10T08:38:18;28.10;;;14.18;;
27704;SDS011;15109;50.992;6.918;2022-12-10T08:41:39;56.55;;;16.52;;
27704;SDS011;15109;50.992;6.918;2022-12-10T08:45:00;39.42;;;14.80;;
27704;SDS011;15109;50.992;6.918;2022-12-10T08:48:22;34.78;;;15.85;;
27704;SDS011;15109;50.992;6.918;2022-12-10T08:51:44;36.63;;;16.73;;
27704;SDS011;15109;50.992;6.918;2022-12-10T08:55:05;48.33;;;16.55;;
27704;SDS011;15109;50.992;6.918;2022-12-10T08:58:26;29.52;;;14.23;;
27704;SDS011;15109;50.992;6.918;2022-12-10T09:01:47;30.98;;;15.63;;
27704;SDS011;15109;50.992;6.918;2022-12-10T09:05:08;42.42;;;16.48;;
27704;SDS011;15109;50.992;6.918;2022-12-10T09:08:30;35.50;;;15.10;;
27704;SDS011;15109;50.992;6.918;2022-12-10T09:11:51;39.47;;;15.88;;
27704;SDS011;15109;50.992;6.918;2022-12-10T09:15:12;31.45;;;15.95;;
27704;SDS011;15109;50.992;6.918;2022-12-10T09:18:33;35.35;;;15.68;;
27704;SDS011;15109;50.992;6.918;2022-12-10T09:21:54;37.47;;;15.68;;
27704;SDS011;15109;50.992;6.918;2022-12-10T09:25:15;32.88;;;12.90;;
27704;SDS011;15109;50.992;6.918;2022-12-10T09:28:37;25.85;;;13.32;;
27704;SDS011;15109;50.992;6.918;2022-12-10T09:31:59;29.15;;;13.48;;
27704;SDS011;15109;50.992;6.918;2022-12-10T09:35:20;33.75;;;14.60;;
27704;SDS011;15109;50.992;6.918;2022-12-10T09:38:42;27.88;;;14.02;;
27704;SDS011;15109;50.992;6.918;2022-12-10T09:46:51;34.42;;;15.15;;
27704;SDS011;15109;50.992;6.918;2022-12-10T09:50:04;32.42;;;14.05;;
27704;SDS011;15109;50.992;6.918;2022-12-10T09:53:36;30.95;;;13.95;;
27704;SDS011;15109;50.992;6.918;2022-12-10T09:57:03;27.75;;;12.55;;
27704;SDS011;15109;50.992;6.918;2022-12-10T10:03:50;41.88;;;14.95;;
27704;SDS011;15109;50.992;6.918;2022-12-10T10:07:21;25.13;;;13.05;;
27704;SDS011;15109;50.992;6.918;2022-12-10T10:10:47;31.67;;;14.07;;
27704;SDS011;15109;50.992;6.918;2022-12-10T10:14:13;40.22;;;13.98;;
27704;SDS011;15109;50.992;6.918;2022-12-10T10:17:39;27.35;;;12.18;;
27704;SDS011;15109;50.992;6.918;2022-12-10T10:21:07;28.58;;;12.88;;
27704;SDS011;15109;50.992;6.918;2022-12-10T10:24:43;29.23;;;12.43;;
27704;SDS011;15109;50.992;6.918;2022-12-10T10:28:12;28.85;;;13.05;;
27704;SDS011;15109;50.992;6.918;2022-12-10T10:31:38;30.52;;;14.43;;
27704;SDS011;15109;50.992;6.918;2022-12-10T10:35:02;31.65;;;14.68;;
27704;SDS011;15109;50.992;6.918;2022-12-10T10:38:26;29.30;;;12.65;;
27704;SDS011;15109;50.992;6.918;2022-12-10T10:41:52;29.63;;;14.15;;
27704;SDS011;15109;50.992;6.918;2022-12-10T10:52:54;46.97;;;17.27;;
27704;SDS011;15109;50.992;6.918;2022-12-10T10:59:37;37.33;;;14.27;;
27704;SDS011;15109;50.992;6.918;2022-12-10T11:02:59;40.95;;;15.40;;
27704;SDS011;15109;50.992;6.918;2022-12-10T11:06:20;28.95;;;13.20;;
27704;SDS011;15109;50.992;6.918;2022-12-10T11:09:42;32.05;;;13.38;;
27704;SDS011;15109;50.992;6.918;2022-12-10T11:13:06;28.48;;;12.70;;
27704;SDS011;15109;50.992;6.918;2022-12-10T11:16:38;28.27;;;12.77;;
27704;SDS011;15109;50.992;6.918;2022-12-10T11:20:09;38.13;;;14.10;;
27704;SDS011;15109;50.992;6.918;2022-12-10T11:23:40;36.63;;;13.90;;
27704;SDS011;15109;50.992;6.918;2022-12-10T11:27:03;30.83;;;13.73;;
27704;SDS011;15109;50.992;6.918;2022-12-10T11:30:37;31.17;;;14.57;;
27704;SDS011;15109;50.992;6.918;2022-12-10T11:41:47;24.50;;;12.45;;
27704;SDS011;15109;50.992;6.918;2022-12-10T11:59:38;22.60;;;10.63;;
27704;SDS011;15109;50.992;6.918;2022-12-10T12:14:05;14.30;;;7.88;;
27704;SDS011;15109;50.992;6.918;2022-12-10T12:17:33;17.08;;;8.52;;
27704;SDS011;15109;50.992;6.918;2022-12-10T12:21:04;17.27;;;8.88;;
27704;SDS011;15109;50.992;6.918;2022-12-10T12:24:36;26.48;;;8.85;;
27704;SDS011;15109;50.992;6.918;2022-12-10T12:28:04;17.90;;;8.52;;
27704;SDS011;15109;50.992;6.918;2022-12-10T12:31:34;20.27;;;10.02;;
27704;SDS011;15109;50.992;6.918;2022-12-10T12:35:16;22.20;;;10.15;;
27704;SDS011;15109;50.992;6.918;2022-12-10T12:38:46;21.10;;;11.02;;
27704;SDS011;15109;50.992;6.918;2022-12-10T12:42:26;22.05;;;10.23;;
27704;SDS011;15109;50.992;6.918;2022-12-10T12:46:26;24.90;;;9.88;;
27704;SDS011;15109;50.992;6.918;2022-12-10T12:50:00;24.85;;;11.23;;
27704;SDS011;15109;50.992;6.918;2022-12-10T12:53:22;25.38;;;9.88;;
27704;SDS011;15109;50.992;6.918;2022-12-10T13:00:16;17.05;;;8.52;;
27704;SDS011;15109;50.992;6.918;2022-12-10T13:03:39;27.08;;;9.80;;
27704;SDS011;15109;50.992;6.918;2022-12-10T13:07:36;22.02;;;9.15;;
27704;SDS011;15109;50.992;6.918;2022-12-10T13:18:22;20.95;;;9.13;;
27704;SDS011;15109;50.992;6.918;2022-12-10T13:22:00;22.35;;;9.70;;
27704;SDS011;15109;50.992;6.918;2022-12-10T13:35:59;22.65;;;10.05;;
27704;SDS011;15109;50.992;6.918;2022-12-10T13:42:56;20.25;;;9.10;;
27704;SDS011;15109;50.992;6.918;2022-12-10T13:57:25;23.42;;;10.07;;
27704;SDS011;15109;50.992;6.918;2022-12-10T14:00:57;21.70;;;10.50;;
27704;SDS011;15109;50.992;6.918;2022-12-10T14:04:37;21.13;;;10.23;;
27704;SDS011;15109;50.992;6.918;2022-12-10T14:08:15;19.38;;;9.63;;
27704;SDS011;15109;50.992;6.918;2022-12-10T14:12:01;19.50;;;9.48;;
27704;SDS011;15109;50.992;6.918;2022-12-10T14:15:24;19.52;;;8.68;;
27704;SDS011;15109;50.992;6.918;2022-12-10T14:18:50;18.20;;;8.18;;
27704;SDS011;15109;50.992;6.918;2022-12-10T14:22:43;20.17;;;8.07;;
27704;SDS011;15109;50.992;6.918;2022-12-10T14:26:19;13.00;;;6.95;;
27704;SDS011;15109;50.992;6.918;2022-12-10T14:29:43;14.65;;;7.65;;
27704;SDS011;15109;50.992;6.918;2022-12-10T14:33:07;18.88;;;8.48;;
27704;SDS011;15109;50.992;6.918;2022-12-10T14:36:34;17.80;;;8.70;;
27704;SDS011;15109;50.992;6.918;2022-12-10T14:40:00;21.05;;;8.93;;
27704;SDS011;15109;50.992;6.918;2022-12-10T14:43:22;30.33;;;11.25;;
27704;SDS011;15109;50.992;6.918;2022-12-10T14:46:49;21.33;;;11.10;;
27704;SDS011;15109;50.992;6.918;2022-12-10T14:50:11;17.95;;;10.45;;
27704;SDS011;15109;50.992;6.918;2022-12-10T14:53:34;21.27;;;11.07;;
27704;SDS011;15109;50.992;6.918;2022-12-10T14:56:55;19.83;;;10.75;;
27704;SDS011;15109;50.992;6.918;2022-12-10T15:00:27;17.05;;;8.55;;
27704;SDS011;15109;50.992;6.918;2022-12-10T15:03:49;20.63;;;10.18;;
27704;SDS011;15109;50.992;6.918;2022-12-10T15:07:14;22.15;;;10.45;;
27704;SDS011;15109;50.992;6.918;2022-12-10T15:10:43;21.52;;;9.38;;
27704;SDS011;15109;50.992;6.918;2022-12-10T15:14:06;20.60;;;9.82;;
27704;SDS011;15109;50.992;6.918;2022-12-10T15:17:35;20.05;;;9.30;;
27704;SDS011;15109;50.992;6.918;2022-12-10T15:21:08;23.13;;;10.55;;
27704;SDS011;15109;50.992;6.918;2022-12-10T15:24:41;23.13;;;9.88;;
27704;SDS011;15109;50.992;6.918;2022-12-10T15:28:20;22.35;;;9.63;;
27704;SDS011;15109;50.992;6.918;2022-12-10T15:32:01;23.45;;;10.65;;
27704;SDS011;15109;50.992;6.918;2022-12-10T15:40:34;19.15;;;10.43;;
27704;SDS011;15109;50.992;6.918;2022-12-10T15:44:03;21.00;;;10.80;;
27704;SDS011;15109;50.992;6.918;2022-12-10T15:47:26;23.20;;;9.57;;
27704;SDS011;15109;50.992;6.918;2022-12-10T15:50:48;24.88;;;12.32;;
27704;SDS011;15109;50.992;6.918;2022-12-10T15:58:12;22.13;;;10.57;;
27704;SDS011;15109;50.992;6.918;2022-12-10T16:01:34;26.33;;;11.10;;
27704;SDS011;15109;50.992;6.918;2022-12-10T16:04:55;24.38;;;11.98;;
27704;SDS011;15109;50.992;6.918;2022-12-10T16:08:17;16.67;;;9.15;;
27704;SDS011;15109;50.992;6.918;2022-12-10T16:11:44;28.63;;;12.57;;
27704;SDS011;15109;50.992;6.918;2022-12-10T16:15:05;25.17;;;11.13;;
27704;SDS011;15109;50.992;6.918;2022-12-10T16:18:31;20.25;;;10.23;;
27704;SDS011;15109;50.992;6.918;2022-12-10T16:21:52;21.67;;;11.20;;
27704;SDS011;15109;50.992;6.918;2022-12-10T16:25:13;22.60;;;10.18;;
27704;SDS011;15109;50.992;6.918;2022-12-10T16:28:35;27.98;;;12.05;;
27704;SDS011;15109;50.992;6.918;2022-12-10T16:31:56;28.23;;;11.35;;
27704;SDS011;15109;50.992;6.918;2022-12-10T16:35:17;21.95;;;10.65;;
27704;SDS011;15109;50.992;6.918;2022-12-10T16:38:39;16.90;;;8.50;;
27704;SDS011;15109;50.992;6.918;2022-12-10T16:42:00;28.70;;;10.73;;
27704;SDS011;15109;50.992;6.918;2022-12-10T16:45:24;29.35;;;11.65;;
27704;SDS011;15109;50.992;6.918;2022-12-10T16:52:15;18.98;;;10.32;;
27704;SDS011;15109;50.992;6.918;2022-12-10T16:55:36;25.77;;;10.77;;
27704;SDS011;15109;50.992;6.918;2022-12-10T16:58:57;21.80;;;9.95;;
27704;SDS011;15109;50.992;6.918;2022-12-10T17:02:19;21.70;;;11.00;;
27704;SDS011;15109;50.992;6.918;2022-12-10T17:09:41;20.85;;;9.68;;
27704;SDS011;15109;50.992;6.918;2022-12-10T17:13:03;19.80;;;8.75;;
27704;SDS011;15109;50.992;6.918;2022-12-10T17:16:24;16.35;;;8.80;;
27704;SDS011;15109;50.992;6.918;2022-12-10T17:19:45;32.35;;;12.65;;
27704;SDS011;15109;50.992;6.918;2022-12-10T17:23:06;15.95;;;9.48;;
27704;SDS011;15109;50.992;6.918;2022-12-10T17:26:31;33.97;;;13.32;;
27704;SDS011;15109;50.992;6.918;2022-12-10T17:29:54;24.15;;;10.80;;
27704;SDS011;15109;50.992;6.918;2022-12-10T17:33:17;19.92;;;11.07;;
27704;SDS011;15109;50.992;6.918;2022-12-10T17:36:42;24.55;;;11.90;;
27704;SDS011;15109;50.992;6.918;2022-12-10T17:40:12;25.10;;;11.48;;
27704;SDS011;15109;50.992;6.918;2022-12-10T17:43:35;20.10;;;10.80;;
27704;SDS011;15109;50.992;6.918;2022-12-10T17:46:56;21.17;;;10.52;;
27704;SDS011;15109;50.992;6.918;2022-12-10T17:50:23;24.38;;;12.65;;
27704;SDS011;15109;50.992;6.918;2022-12-10T17:53:44;16.80;;;10.00;;
27704;SDS011;15109;50.992;6.918;2022-12-10T17:57:14;27.10;;;11.73;;
27704;SDS011;15109;50.992;6.918;2022-12-10T18:00:40;22.80;;;11.40;;
27704;SDS011;15109;50.992;6.918;2022-12-10T18:04:02;26.15;;;10.85;;
27704;SDS011;15109;50.992;6.918;2022-12-10T18:07:23;22.42;;;10.88;;
27704;SDS011;15109;50.992;6.918;2022-12-10T18:10:44;18.27;;;9.38;;
27704;SDS011;15109;50.992;6.918;2022-12-10T18:14:05;16.55;;;9.50;;
27704;SDS011;15109;50.992;6.918;2022-12-10T18:17:26;16.95;;;8.88;;
27704;SDS011;15109;50.992;6.918;2022-12-10T18:20:47;18.90;;;9.20;;
27704;SDS011;15109;50.992;6.918;2022-12-10T18:24:11;24.83;;;10.60;;
27704;SDS011;15109;50.992;6.918;2022-12-10T18:27:35;33.83;;;13.45;;
27704;SDS011;15109;50.992;6.918;2022-12-10T18:30:56;22.65;;;12.45;;
27704;SDS011;15109;50.992;6.918;2022-12-10T18:34:17;27.33;;;13.85;;
27704;SDS011;15109;50.992;6.918;2022-12-10T18:37:40;20.25;;;10.93;;
27704;SDS011;15109;50.992;6.918;2022-12-10T18:41:01;25.80;;;10.40;;
27704;SDS011;15109;50.992;6.918;2022-12-10T18:44:23;21.58;;;10.73;;
27704;SDS011;15109;50.992;6.918;2022-12-10T18:47:46;24.25;;;11.55;;
27704;SDS011;15109;50.992;6.918;2022-12-10T18:51:07;20.88;;;8.68;;
27704;SDS011;15109;50.992;6.918;2022-12-10T18:54:28;15.10;;;8.25;;
27704;SDS011;15109;50.992;6.918;2022-12-10T18:57:49;25.77;;;11.02;;
27704;SDS011;15109;50.992;6.918;2022-12-10T19:01:14;24.05;;;9.60;;
27704;SDS011;15109;50.992;6.918;2022-12-10T19:04:37;17.65;;;8.43;;
27704;SDS011;15109;50.992;6.918;2022-12-10T19:07:59;22.00;;;11.07;;
27704;SDS011;15109;50.992;6.918;2022-12-10T19:11:21;21.08;;;9.73;;
27704;SDS011;15109;50.992;6.918;2022-12-10T19:14:42;19.13;;;9.30;;
27704;SDS011;15109;50.992;6.918;2022-12-10T19:18:04;24.40;;;9.50;;
27704;SDS011;15109;50.992;6.918;2022-12-10T19:21:25;19.30;;;9.75;;
27704;SDS011;15109;50.992;6.918;2022-12-10T19:24:46;18.83;;;9.88;;
27704;SDS011;15109;50.992;6.918;2022-12-10T19:28:08;20.50;;;9.23;;
27704;SDS011;15109;50.992;6.918;2022-12-10T19:31:32;30.88;;;14.65;;
27704;SDS011;15109;50.992;6.918;2022-12-10T19:34:53;28.13;;;13.82;;
27704;SDS011;15109;50.992;6.918;2022-12-10T19:38:14;22.40;;;10.20;;
27704;SDS011;15109;50.992;6.918;2022-12-10T19:41:35;27.67;;;10.45;;
27704;SDS011;15109;50.992;6.918;2022-12-10T19:44:56;25.25;;;13.18;;
27704;SDS011;15109;50.992;6.918;2022-12-10T19:48:18;29.33;;;10.63;;
27704;SDS011;15109;50.992;6.918;2022-12-10T19:51:42;20.02;;;10.35;;
27704;SDS011;15109;50.992;6.918;2022-12-10T19:55:06;23.10;;;10.32;;
27704;SDS011;15109;50.992;6.918;2022-12-10T19:58:28;20.02;;;9.45;;
27704;SDS011;15109;50.992;6.918;2022-12-10T20:01:49;21.02;;;10.50;;
27704;SDS011;15109;50.992;6.918;2022-12-10T20:05:10;18.98;;;10.43;;
27704;SDS011;15109;50.992;6.918;2022-12-10T20:08:32;18.45;;;9.27;;
27704;SDS011;15109;50.992;6.918;2022-12-10T20:11:53;20.00;;;8.30;;
27704;SDS011;15109;50.992;6.918;2022-12-10T20:15:15;22.58;;;7.80;;
27704;SDS011;15109;50.992;6.918;2022-12-10T20:18:37;23.20;;;9.05;;
27704;SDS011;15109;50.992;6.918;2022-12-10T20:21:58;17.33;;;7.95;;
27704;SDS011;15109;50.992;6.918;2022-12-10T20:25:19;16.80;;;8.27;;
27704;SDS011;15109;50.992;6.918;2022-12-10T20:28:46;18.35;;;8.73;;
27704;SDS011;15109;50.992;6.918;2022-12-10T20:32:07;24.58;;;9.95;;
27704;SDS011;15109;50.992;6.918;2022-12-10T20:35:32;24.33;;;10.13;;
27704;SDS011;15109;50.992;6.918;2022-12-10T20:38:53;29.02;;;10.70;;
27704;SDS011;15109;50.992;6.918;2022-12-10T20:42:17;20.67;;;9.32;;
27704;SDS011;15109;50.992;6.918;2022-12-10T20:45:39;19.20;;;10.10;;
27704;SDS011;15109;50.992;6.918;2022-12-10T20:49:00;24.10;;;9.50;;
27704;SDS011;15109;50.992;6.918;2022-12-10T20:52:21;27.17;;;10.23;;
27704;SDS011;15109;50.992;6.918;2022-12-10T20:55:42;17.35;;;9.48;;
27704;SDS011;15109;50.992;6.918;2022-12-10T20:59:04;22.95;;;10.82;;
27704;SDS011;15109;50.992;6.918;2022-12-10T21:02:25;35.42;;;11.68;;
27704;SDS011;15109;50.992;6.918;2022-12-10T21:05:46;17.40;;;8.65;;
27704;SDS011;15109;50.992;6.918;2022-12-10T21:09:07;22.67;;;9.65;;
27704;SDS011;15109;50.992;6.918;2022-12-10T21:12:29;18.48;;;9.00;;
27704;SDS011;15109;50.992;6.918;2022-12-10T21:15:51;16.20;;;7.82;;
27704;SDS011;15109;50.992;6.918;2022-12-10T21:19:13;16.58;;;7.45;;
27704;SDS011;15109;50.992;6.918;2022-12-10T21:22:34;14.13;;;7.13;;
27704;SDS011;15109;50.992;6.918;2022-12-10T21:25:57;18.35;;;8.68;;
27704;SDS011;15109;50.992;6.918;2022-12-10T21:29:18;13.18;;;6.53;;
27704;SDS011;15109;50.992;6.918;2022-12-10T21:32:39;16.85;;;7.53;;
27704;SDS011;15109;50.992;6.918;2022-12-10T21:36:00;24.83;;;10.23;;
27704;SDS011;15109;50.992;6.918;2022-12-10T21:39:21;13.68;;;7.10;;
27704;SDS011;15109;50.992;6.918;2022-12-10T21:42:42;23.73;;;8.77;;
27704;SDS011;15109;50.992;6.918;2022-12-10T21:46:22;23.27;;;11.68;;
27704;SDS011;15109;50.992;6.918;2022-12-10T21:49:43;24.80;;;10.27;;
27704;SDS011;15109;50.992;6.918;2022-12-10T21:53:05;18.98;;;9.10;;
27704;SDS011;15109;50.992;6.918;2022-12-10T21:56:26;17.42;;;7.88;;
27704;SDS011;15109;50.992;6.918;2022-12-10T21:59:48;15.23;;;6.82;;
27704;SDS011;15109;50.992;6.918;2022-12-10T22:03:15;22.30;;;9.05;;
27704;SDS011;15109;50.992;6.918;2022-12-10T22:06:36;16.95;;;8.20;;
27704;SDS011;15109;50.992;6.918;2022-12-10T22:10:00;18.63;;;7.72;;
27704;SDS011;15109;50.992;6.918;2022-12-10T22:13:21;24.17;;;7.88;;
27704;SDS011;15109;50.992;6.918;2022-12-10T22:16:42;14.30;;;7.13;;
27704;SDS011;15109;50.992;6.918;2022-12-10T22:20:04;20.83;;;8.35;;